Time;durP1;ratioP1;P1;durP2;ratioP2;P2;SDS_P1;SDS_P2;PMS_P1;PMS_P2;Temp;Humidity;BMP_temperature;BMP_pressure;BME280_temperature;BME280_humidity;BME280_pressure;Samples;Min_cycle;Max_cycle;Signal;HPM_P1;HPM_P2
2023/06/13 00:00:11;;;;;;;1.33;1.30;;;22.40;97.50;;;;;;5057085;28;20227;-64
2023/06/13 00:02:38;;;;;;;1.50;1.40;;;22.40;97.30;;;;;;5055598;28;20249;-64
2023/06/13 00:05:10;;;;;;;1.17;1.10;;;22.40;96.40;;;;;;5052845;28;20214;-64
2023/06/13 00:07:37;;;;;;;1.58;1.20;;;22.40;96.90;;;;;;5052723;28;20198;-64
2023/06/13 00:10:05;;;;;;;1.10;1.10;;;22.30;96.20;;;;;;5054851;28;20232;-64
2023/06/13 00:12:32;;;;;;;1.10;1.10;;;22.30;96.30;;;;;;5051536;28;20204;-63
2023/06/13 00:15:01;;;;;;;1.20;1.20;;;22.20;97.10;;;;;;5055591;28;20243;-68
2023/06/13 00:17:29;;;;;;;1.30;1.30;;;22.20;97.40;;;;;;5052761;28;20291;-63
2023/06/13 00:19:56;;;;;;;1.20;1.20;;;22.20;96.20;;;;;;5051466;28;20292;-60
2023/06/13 00:22:24;;;;;;;1.30;1.20;;;22.20;96.80;;;;;;5035161;28;20228;-65
2023/06/13 00:24:51;;;;;;;1.67;1.42;;;22.00;96.30;;;;;;5032209;28;20247;-64
2023/06/13 00:27:18;;;;;;;1.48;1.30;;;22.00;96.50;;;;;;5032008;28;20211;-63
2023/06/13 00:29:45;;;;;;;1.40;1.30;;;22.00;96.90;;;;;;5031520;28;20718;-65
2023/06/13 00:32:12;;;;;;;1.10;1.10;;;22.00;96.60;;;;;;5031787;28;20295;-63
2023/06/13 00:34:40;;;;;;;1.33;1.27;;;21.90;96.60;;;;;;5032255;28;20304;-65
2023/06/13 00:37:09;;;;;;;1.55;1.38;;;21.80;97.00;;;;;;5034125;28;20208;-64
2023/06/13 00:39:37;;;;;;;1.30;1.30;;;21.60;97.40;;;;;;5033509;28;20221;-63
2023/06/13 00:42:06;;;;;;;1.48;1.45;;;21.60;97.90;;;;;;5032512;28;20720;-63
2023/06/13 00:44:33;;;;;;;1.10;1.10;;;21.60;97.20;;;;;;5031753;28;20219;-63
2023/06/13 00:47:02;;;;;;;1.65;1.20;;;21.50;98.10;;;;;;5031411;28;20219;-66
2023/06/13 00:49:29;;;;;;;1.02;1.00;;;21.50;97.90;;;;;;5031495;28;20250;-63
2023/06/13 00:52:00;;;;;;;1.55;1.45;;;21.50;97.80;;;;;;5031250;28;20210;-64
2023/06/13 00:54:29;;;;;;;1.20;1.15;;;21.50;97.10;;;;;;5031293;28;20554;-63
2023/06/13 00:56:57;;;;;;;1.20;1.20;;;21.50;98.20;;;;;;5031002;28;20213;-65
2023/06/13 00:59:24;;;;;;;1.40;1.30;;;21.50;98.00;;;;;;5030442;28;20224;-63
2023/06/13 01:01:52;;;;;;;1.42;1.33;;;21.40;97.50;;;;;;5030570;28;20208;-62
2023/06/13 01:04:19;;;;;;;1.05;1.05;;;21.40;97.70;;;;;;5030960;28;20207;-62
2023/06/13 01:06:47;;;;;;;1.50;1.40;;;21.30;97.80;;;;;;5031174;28;20255;-64
2023/06/13 01:09:16;;;;;;;2.17;1.48;;;21.30;97.70;;;;;;5030002;28;20236;-65
2023/06/13 01:11:54;;;;;;;1.50;1.40;;;21.20;97.60;;;;;;5031122;28;20216;-65
2023/06/13 01:14:30;;;;;;;1.17;1.17;;;21.10;97.70;;;;;;5031162;28;20204;-64
2023/06/13 01:17:03;;;;;;;1.40;1.40;;;21.00;97.70;;;;;;5030787;28;20303;-63
2023/06/13 01:19:37;;;;;;;1.30;1.30;;;21.10;98.10;;;;;;5030397;28;20231;-65
2023/06/13 01:22:08;;;;;;;1.40;1.30;;;21.10;98.10;;;;;;5030434;28;20305;-65
2023/06/13 01:24:43;;;;;;;1.40;1.40;;;21.10;97.90;;;;;;5030500;28;20211;-63
2023/06/13 01:27:15;;;;;;;1.30;1.30;;;21.10;98.20;;;;;;5030578;28;20200;-63
2023/06/13 01:29:43;;;;;;;1.15;1.15;;;21.20;98.50;;;;;;5030077;28;20241;-63
2023/06/13 01:32:12;;;;;;;1.27;1.20;;;21.30;98.70;;;;;;5030799;28;20212;-65
2023/06/13 01:34:40;;;;;;;1.27;1.27;;;21.40;98.40;;;;;;5030781;28;20215;-66
2023/06/13 01:37:07;;;;;;;1.33;1.23;;;21.40;98.40;;;;;;5030467;28;20204;-65
2023/06/13 01:39:35;;;;;;;1.20;1.20;;;21.30;97.90;;;;;;5030349;28;20315;-66
2023/06/13 01:42:02;;;;;;;1.60;1.50;;;21.30;98.10;;;;;;5030409;28;20216;-63
2023/06/13 01:44:30;;;;;;;1.30;1.20;;;21.20;97.70;;;;;;5030298;28;20589;-64
2023/06/13 01:47:07;;;;;;;1.33;1.20;;;21.10;97.90;;;;;;5028984;28;20604;-64
2023/06/13 01:49:48;;;;;;;1.20;1.20;;;21.10;98.40;;;;;;5030119;28;20228;-64
2023/06/13 01:52:22;;;;;;;1.30;1.30;;;21.10;98.20;;;;;;5030567;28;20587;-64
2023/06/13 01:54:55;;;;;;;1.73;1.50;;;20.90;97.90;;;;;;5031306;28;20207;-63
2023/06/13 01:57:28;;;;;;;1.27;1.17;;;21.00;98.40;;;;;;5030890;28;20236;-64
2023/06/13 01:59:58;;;;;;;1.10;1.10;;;21.10;99.10;;;;;;5030467;28;20235;-65
2023/06/13 02:02:25;;;;;;;1.38;1.20;;;21.10;98.60;;;;;;5030963;28;20571;-65
2023/06/13 02:04:52;;;;;;;1.35;1.30;;;21.10;98.80;;;;;;5031024;28;20683;-63
2023/06/13 02:07:19;;;;;;;1.10;1.10;;;21.20;99.00;;;;;;5030781;28;20216;-65
2023/06/13 02:09:46;;;;;;;1.42;1.33;;;21.10;99.20;;;;;;5029978;28;20314;-65
2023/06/13 02:12:14;;;;;;;1.33;1.30;;;21.00;98.30;;;;;;5030020;28;20215;-64
2023/06/13 02:14:42;;;;;;;1.15;1.15;;;21.10;98.90;;;;;;5030132;28;20209;-62
2023/06/13 02:17:11;;;;;;;1.52;1.52;;;21.00;98.80;;;;;;5030212;28;20284;-64
2023/06/13 02:19:38;;;;;;;1.27;1.27;;;21.00;98.50;;;;;;5030158;28;20225;-65
2023/06/13 02:22:06;;;;;;;1.50;1.40;;;21.00;99.50;;;;;;5030493;28;20295;-64
2023/06/13 02:24:32;;;;;;;1.13;1.13;;;21.00;98.40;;;;;;5029584;28;20235;-64
2023/06/13 02:27:00;;;;;;;1.45;1.35;;;21.00;98.90;;;;;;5029959;28;20667;-63
2023/06/13 02:29:27;;;;;;;1.10;1.10;;;21.00;99.10;;;;;;5029815;28;20227;-65
2023/06/13 02:31:53;;;;;;;1.20;1.20;;;21.00;99.40;;;;;;5030476;28;20215;-63
2023/06/13 02:34:22;;;;;;;1.40;1.30;;;21.00;98.50;;;;;;5031266;28;20307;-64
2023/06/13 02:36:48;;;;;;;1.10;1.10;;;20.90;98.90;;;;;;5050265;28;20206;-64
2023/06/13 02:39:15;;;;;;;1.40;1.30;;;20.90;98.50;;;;;;5054081;28;20224;-62
2023/06/13 02:41:42;;;;;;;1.17;1.17;;;20.90;98.40;;;;;;5054606;28;20841;-64
2023/06/13 02:44:09;;;;;;;1.60;1.50;;;20.80;99.00;;;;;;5053944;28;20271;-65
2023/06/13 02:46:36;;;;;;;1.33;1.23;;;20.70;98.40;;;;;;5053570;28;20295;-64
2023/06/13 02:49:03;;;;;;;1.17;1.17;;;20.60;98.30;;;;;;5053297;28;20232;-65
2023/06/13 02:51:31;;;;;;;1.10;1.10;;;20.50;98.80;;;;;;5053412;28;20212;-63
2023/06/13 02:53:58;;;;;;;1.10;1.10;;;20.40;98.40;;;;;;5053411;28;20208;-64
2023/06/13 02:56:26;;;;;;;1.40;1.30;;;20.40;98.90;;;;;;5054190;28;20208;-65
2023/06/13 02:58:52;;;;;;;1.45;1.38;;;20.40;99.50;;;;;;5053131;28;20223;-64
2023/06/13 03:01:19;;;;;;;1.38;1.38;;;20.30;99.20;;;;;;5053254;28;20211;-64
2023/06/13 03:03:47;;;;;;;1.20;1.20;;;20.30;99.10;;;;;;5053466;28;20227;-64
2023/06/13 03:06:17;;;;;;;1.38;1.27;;;20.20;99.10;;;;;;5053265;28;20215;-66
2023/06/13 03:08:45;;;;;;;1.40;1.30;;;20.20;99.30;;;;;;5053517;28;20231;-64
2023/06/13 03:11:13;;;;;;;1.30;1.30;;;20.10;99.60;;;;;;5053285;28;20222;-65
2023/06/13 03:13:39;;;;;;;1.42;1.33;;;20.10;99.90;;;;;;5053366;28;20204;-64
2023/06/13 03:16:08;;;;;;;1.60;1.50;;;20.00;99.10;;;;;;5053494;28;20207;-63
2023/06/13 03:18:36;;;;;;;1.30;1.30;;;20.00;99.60;;;;;;5053477;28;20246;-64
2023/06/13 03:21:03;;;;;;;1.50;1.38;;;19.90;99.80;;;;;;5053052;28;20715;-64
2023/06/13 03:23:30;;;;;;;1.33;1.33;;;19.90;99.90;;;;;;5053277;28;20224;-63
2023/06/13 03:26:00;;;;;;;1.30;1.30;;;19.90;99.90;;;;;;5052976;28;20200;-63
2023/06/13 03:28:27;;;;;;;1.40;1.30;;;19.90;99.90;;;;;;5052727;28;20231;-63
2023/06/13 03:30:54;;;;;;;1.10;1.10;;;20.00;99.90;;;;;;5052568;28;20684;-65
2023/06/13 03:33:22;;;;;;;1.42;1.40;;;20.00;99.90;;;;;;5052783;28;20295;-65
2023/06/13 03:35:50;;;;;;;1.42;1.33;;;20.00;99.60;;;;;;5053030;28;20212;-65
2023/06/13 03:38:17;;;;;;;1.30;1.20;;;20.00;99.50;;;;;;5064875;28;20253;-65
2023/06/13 03:40:44;;;;;;;1.27;1.20;;;20.00;99.50;;;;;;5059928;28;20211;-64
2023/06/13 03:43:12;;;;;;;1.13;1.13;;;20.10;99.80;;;;;;5056386;28;20265;-65
2023/06/13 03:45:39;;;;;;;1.10;1.10;;;20.20;99.80;;;;;;5054701;28;20753;-65
2023/06/13 03:48:06;;;;;;;1.10;1.10;;;20.20;99.90;;;;;;5052850;28;20208;-64
2023/06/13 03:50:33;;;;;;;1.20;1.20;;;20.30;99.90;;;;;;5053037;28;20203;-65
2023/06/13 03:53:00;;;;;;;1.30;1.23;;;20.40;99.60;;;;;;5053314;28;20645;-62
2023/06/13 03:55:27;;;;;;;1.10;1.10;;;20.30;99.40;;;;;;5054473;28;20204;-65
2023/06/13 03:57:53;;;;;;;1.00;1.00;;;20.30;99.60;;;;;;5053110;28;20700;-62
2023/06/13 04:00:22;;;;;;;1.30;1.20;;;20.30;99.60;;;;;;5052584;28;20224;-65
2023/06/13 04:02:48;;;;;;;1.20;1.20;;;20.30;99.80;;;;;;5055774;28;20210;-62
2023/06/13 04:05:16;;;;;;;1.35;1.20;;;20.30;99.70;;;;;;5056160;28;20212;-64
2023/06/13 04:07:44;;;;;;;1.48;1.38;;;20.20;99.50;;;;;;5055631;28;20212;-65
2023/06/13 04:10:12;;;;;;;1.08;1.08;;;20.10;99.90;;;;;;5052668;28;20263;-63
2023/06/13 04:12:38;;;;;;;2.20;1.42;;;20.30;99.90;;;;;;5051929;28;20218;-65
2023/06/13 04:15:06;;;;;;;1.60;1.25;;;20.40;99.90;;;;;;5051656;28;20617;-62
2023/06/13 04:17:36;;;;;;;1.40;1.30;;;20.50;99.90;;;;;;5050979;28;20818;-62
2023/06/13 04:20:05;;;;;;;1.17;1.17;;;20.60;99.90;;;;;;5050106;28;20732;-64
2023/06/13 04:22:32;;;;;;;2.28;1.20;;;20.60;99.90;;;;;;5051154;28;20192;-65
2023/06/13 04:24:59;;;;;;;1.60;1.50;;;20.60;99.90;;;;;;5051552;28;20219;-64
2023/06/13 04:27:28;;;;;;;2.63;2.42;;;20.60;99.90;;;;;;5051717;28;20204;-63
2023/06/13 04:29:55;;;;;;;2.90;2.70;;;20.70;99.90;;;;;;5051493;28;20312;-65
2023/06/13 04:32:23;;;;;;;3.03;2.72;;;20.70;99.90;;;;;;5051917;28;20200;-63
2023/06/13 04:34:55;;;;;;;2.50;2.30;;;20.60;99.90;;;;;;5051644;28;20223;-63
2023/06/13 04:37:23;;;;;;;2.05;1.92;;;20.60;99.90;;;;;;5051202;28;20298;-63
2023/06/13 04:39:50;;;;;;;2.15;1.95;;;20.50;99.90;;;;;;5050791;28;20255;-65
2023/06/13 04:42:21;;;;;;;1.65;1.55;;;20.40;99.90;;;;;;5051111;28;20261;-64
2023/06/13 04:44:48;;;;;;;1.75;1.58;;;20.30;99.90;;;;;;5051362;28;20235;-62
2023/06/13 04:47:15;;;;;;;1.50;1.40;;;20.20;99.90;;;;;;5051820;28;20255;-63
2023/06/13 04:49:44;;;;;;;1.75;1.65;;;20.10;99.90;;;;;;5051160;28;20614;-63
2023/06/13 04:52:14;;;;;;;1.80;1.35;;;20.20;99.90;;;;;;5051647;28;20258;-62
2023/06/13 04:54:41;;;;;;;1.30;1.30;;;20.30;99.90;;;;;;5051285;28;20227;-65
2023/06/13 04:57:08;;;;;;;1.50;1.40;;;20.30;99.90;;;;;;5051284;28;20633;-62
2023/06/13 04:59:35;;;;;;;1.40;1.30;;;20.40;99.90;;;;;;5050486;28;20284;-63
2023/06/13 05:02:02;;;;;;;1.67;1.30;;;20.50;99.90;;;;;;5049641;28;20635;-63
2023/06/13 05:04:29;;;;;;;1.20;1.20;;;20.70;99.90;;;;;;5051034;28;20277;-63
2023/06/13 05:06:57;;;;;;;1.20;1.20;;;20.70;99.90;;;;;;5053986;28;20222;-62
2023/06/13 05:09:26;;;;;;;1.23;1.23;;;20.70;99.90;;;;;;5051581;28;20326;-65
2023/06/13 05:11:52;;;;;;;1.30;1.20;;;20.80;99.90;;;;;;5051662;28;20246;-65
2023/06/13 05:14:19;;;;;;;1.30;1.30;;;20.90;99.90;;;;;;5066019;22;20325;-58
2023/06/13 05:16:47;;;;;;;1.52;1.30;;;21.00;99.90;;;;;;5054259;28;20204;-58
2023/06/13 05:19:14;;;;;;;1.13;1.13;;;21.00;99.80;;;;;;5050103;28;20269;-58
2023/06/13 05:21:41;;;;;;;1.00;1.00;;;21.20;99.60;;;;;;5038095;28;20201;-58
2023/06/13 05:24:09;;;;;;;1.30;1.20;;;21.30;99.60;;;;;;5031670;28;20240;-59
2023/06/13 05:26:37;;;;;;;3.88;1.42;;;21.60;99.60;;;;;;5048226;28;20208;-58
2023/06/13 05:29:05;;;;;;;1.88;1.30;;;21.70;98.60;;;;;;5050904;28;20286;-58
2023/06/13 05:31:33;;;;;;;1.63;1.35;;;21.80;98.20;;;;;;5050010;28;20736;-59
2023/06/13 05:34:01;;;;;;;1.10;1.10;;;21.90;99.00;;;;;;5047561;28;20223;-61
2023/06/13 05:36:28;;;;;;;2.05;1.30;;;22.00;98.10;;;;;;5054726;28;20218;-60
2023/06/13 05:38:56;;;;;;;1.63;1.20;;;21.90;97.90;;;;;;5054218;28;20204;-61
2023/06/13 05:41:22;;;;;;;1.10;1.10;;;22.00;98.60;;;;;;5053877;28;20674;-61
2023/06/13 05:43:51;;;;;;;1.23;1.23;;;22.20;97.50;;;;;;5056142;28;20231;-59
2023/06/13 05:46:18;;;;;;;1.23;1.20;;;22.30;97.50;;;;;;5053671;28;20204;-59
2023/06/13 05:48:45;;;;;;;1.25;1.15;;;22.50;97.60;;;;;;5051988;28;20211;-59
2023/06/13 05:51:12;;;;;;;1.42;1.20;;;22.60;97.70;;;;;;5051277;28;20234;-59
2023/06/13 05:53:39;;;;;;;1.13;1.10;;;22.50;96.10;;;;;;5050117;28;20358;-59
2023/06/13 05:56:07;;;;;;;1.25;1.17;;;22.50;96.30;;;;;;5058229;28;20229;-59
2023/06/13 05:58:34;;;;;;;1.30;1.20;;;22.50;96.50;;;;;;5058599;28;20207;-58
2023/06/13 06:01:03;;;;;;;1.10;1.10;;;22.50;96.50;;;;;;5055771;28;20199;-62
2023/06/13 06:03:31;;;;;;;1.58;1.30;;;22.60;96.00;;;;;;5050612;28;20224;-62
2023/06/13 06:05:58;;;;;;;1.25;1.17;;;22.70;95.60;;;;;;5050020;28;20290;-61
2023/06/13 06:08:25;;;;;;;1.40;1.30;;;22.70;95.00;;;;;;5051371;28;20729;-62
2023/06/13 06:10:52;;;;;;;2.05;1.33;;;22.80;94.90;;;;;;5053856;28;20606;-62
2023/06/13 06:13:19;;;;;;;1.40;1.30;;;22.80;94.80;;;;;;5054969;28;20235;-61
2023/06/13 06:15:46;;;;;;;1.40;1.30;;;22.70;94.50;;;;;;5055032;28;20195;-61
2023/06/13 06:18:14;;;;;;;1.10;1.10;;;22.80;94.60;;;;;;5055595;28;20204;-62
2023/06/13 06:20:41;;;;;;;0.90;0.90;;;22.90;94.50;;;;;;5054862;28;20208;-65
2023/06/13 06:23:08;;;;;;;1.67;1.40;;;22.90;94.30;;;;;;5055149;28;20228;-62
2023/06/13 06:25:35;;;;;;;1.25;1.17;;;22.80;94.40;;;;;;5054296;28;20310;-63
2023/06/13 06:28:02;;;;;;;1.13;1.13;;;22.90;94.30;;;;;;5054743;28;20653;-62
2023/06/13 06:30:29;;;;;;;1.10;1.10;;;22.80;93.10;;;;;;5054422;28;20266;-63
2023/06/13 06:32:56;;;;;;;1.00;1.00;;;22.80;93.40;;;;;;5054848;28;20228;-62
2023/06/13 06:35:24;;;;;;;1.20;1.20;;;22.80;93.40;;;;;;5055103;28;20704;-62
2023/06/13 06:37:51;;;;;;;1.00;1.00;;;22.90;93.20;;;;;;5054837;28;20208;-62
2023/06/13 06:40:19;;;;;;;1.60;1.52;;;22.80;92.80;;;;;;5054183;28;20210;-63
2023/06/13 06:42:46;;;;;;;1.10;1.10;;;22.80;92.50;;;;;;5054672;28;20226;-62
2023/06/13 06:45:13;;;;;;;1.35;1.25;;;22.80;91.90;;;;;;5054199;28;20230;-62
2023/06/13 06:47:41;;;;;;;1.10;1.10;;;22.80;91.80;;;;;;5054895;28;20208;-63
2023/06/13 06:50:08;;;;;;;2.47;1.42;;;22.90;91.80;;;;;;5054565;28;20221;-62
2023/06/13 06:52:36;;;;;;;1.52;1.20;;;23.10;91.60;;;;;;5054498;28;20580;-63
2023/06/13 06:55:04;;;;;;;1.58;1.48;;;23.10;91.90;;;;;;5054433;28;20200;-64
2023/06/13 06:57:31;;;;;;;1.17;1.15;;;23.10;91.20;;;;;;5054618;28;20212;-63
2023/06/13 06:59:58;;;;;;;1.15;1.13;;;23.10;91.20;;;;;;5055003;28;20204;-61
2023/06/13 07:02:25;;;;;;;1.83;1.40;;;23.00;91.00;;;;;;5055469;28;20748;-63
2023/06/13 07:04:52;;;;;;;1.50;1.30;;;23.10;91.40;;;;;;5054828;28;20262;-63
2023/06/13 07:07:18;;;;;;;1.17;1.13;;;23.20;90.70;;;;;;5054746;28;20322;-62
2023/06/13 07:09:46;;;;;;;1.63;1.30;;;23.30;90.60;;;;;;5055699;28;20204;-63
2023/06/13 07:12:13;;;;;;;1.20;1.20;;;23.30;90.50;;;;;;5059389;28;20678;-62
2023/06/13 07:14:40;;;;;;;1.40;1.20;;;23.30;90.00;;;;;;5056995;28;20721;-62
2023/06/13 07:17:07;;;;;;;3.30;1.42;;;23.30;90.00;;;;;;5055086;28;20211;-63
2023/06/13 07:19:34;;;;;;;1.30;1.20;;;23.50;89.40;;;;;;5059357;28;20227;-63
2023/06/13 07:22:02;;;;;;;1.27;1.23;;;23.50;88.70;;;;;;5058848;28;20575;-61
2023/06/13 07:24:29;;;;;;;3.65;1.50;;;23.50;87.90;;;;;;5055216;28;20285;-62
2023/06/13 07:26:57;;;;;;;0.95;0.95;;;23.50;87.30;;;;;;5054580;28;20215;-62
2023/06/13 07:29:23;;;;;;;1.10;1.10;;;23.70;87.60;;;;;;5054265;28;20215;-65
2023/06/13 07:31:50;;;;;;;1.02;1.02;;;23.90;88.40;;;;;;5054645;28;20207;-63
2023/06/13 07:34:17;;;;;;;1.10;1.10;;;24.00;88.00;;;;;;5054927;28;20220;-62
2023/06/13 07:36:44;;;;;;;1.50;1.40;;;24.10;88.00;;;;;;5056028;28;20291;-63
2023/06/13 07:39:14;;;;;;;1.42;1.33;;;24.20;88.30;;;;;;5057837;28;20222;-62
2023/06/13 07:41:44;;;;;;;1.20;1.20;;;24.30;86.70;;;;;;5057757;28;20204;-63
2023/06/13 07:44:12;;;;;;;1.52;1.20;;;24.30;86.00;;;;;;5057991;28;20228;-62
2023/06/13 07:46:39;;;;;;;1.00;1.00;;;24.40;85.10;;;;;;5054811;28;20204;-62
2023/06/13 07:49:06;;;;;;;1.85;1.00;;;24.30;85.00;;;;;;5053550;28;20306;-63
2023/06/13 07:51:33;;;;;;;1.85;1.33;;;24.40;85.10;;;;;;5053998;28;20214;-62
2023/06/13 07:54:00;;;;;;;1.77;1.05;;;24.60;85.30;;;;;;5053883;28;20227;-63
2023/06/13 07:56:27;;;;;;;1.20;1.20;;;24.70;85.10;;;;;;5054141;28;20295;-63
2023/06/13 07:58:54;;;;;;;1.88;1.30;;;24.50;82.80;;;;;;5053413;28;20204;-64
2023/06/13 08:01:23;;;;;;;1.00;1.00;;;24.50;83.90;;;;;;5053083;28;20211;-63
2023/06/13 08:03:49;;;;;;;1.65;1.40;;;24.60;84.20;;;;;;5053330;28;20220;-63
2023/06/13 08:06:16;;;;;;;1.00;1.00;;;24.60;85.00;;;;;;5053199;28;20232;-63
2023/06/13 08:08:43;;;;;;;1.52;1.25;;;24.80;84.30;;;;;;5053504;28;20212;-63
2023/06/13 08:11:10;;;;;;;1.10;1.10;;;24.90;84.00;;;;;;5053049;28;20204;-62
2023/06/13 08:13:37;;;;;;;1.20;1.20;;;25.10;86.10;;;;;;5052709;28;20258;-65
2023/06/13 08:16:04;;;;;;;0.90;0.90;;;25.20;84.80;;;;;;5052750;28;20207;-64
2023/06/13 08:18:32;;;;;;;1.13;1.10;;;25.40;83.70;;;;;;5053073;28;20587;-62
2023/06/13 08:20:59;;;;;;;1.02;0.90;;;25.50;81.40;;;;;;5053015;28;20298;-62
2023/06/13 08:23:26;;;;;;;1.10;1.00;;;25.40;81.70;;;;;;5054575;28;20232;-62
2023/06/13 08:25:53;;;;;;;1.08;1.08;;;25.50;79.70;;;;;;5053760;28;20224;-62
2023/06/13 08:28:20;;;;;;;1.02;1.02;;;25.50;79.20;;;;;;5053017;28;20227;-63
2023/06/13 08:30:49;;;;;;;0.90;0.90;;;25.60;79.40;;;;;;5052407;28;20326;-63
2023/06/13 08:33:16;;;;;;;2.28;1.30;;;25.50;78.20;;;;;;5051923;28;20255;-61
2023/06/13 08:35:44;;;;;;;1.20;1.20;;;25.50;77.00;;;;;;5052865;28;20204;-62
2023/06/13 08:38:11;;;;;;;1.30;1.20;;;25.50;76.40;;;;;;5052180;28;20196;-61
2023/06/13 08:40:39;;;;;;;1.23;1.10;;;25.70;77.20;;;;;;5052389;28;20215;-61
2023/06/13 08:43:06;;;;;;;3.33;1.40;;;25.80;76.40;;;;;;5053328;28;20227;-62
2023/06/13 08:45:33;;;;;;;2.05;1.23;;;25.90;76.10;;;;;;5056120;28;20226;-62
2023/06/13 08:48:01;;;;;;;4.50;1.70;;;26.00;75.50;;;;;;5055679;28;20584;-62
2023/06/13 08:50:28;;;;;;;1.25;1.20;;;26.10;76.20;;;;;;5052203;28;20208;-61
2023/06/13 08:52:57;;;;;;;1.85;1.20;;;26.30;77.40;;;;;;5052109;28;20706;-63
2023/06/13 08:55:25;;;;;;;1.90;1.20;;;26.30;74.30;;;;;;5052133;28;20204;-63
2023/06/13 08:57:53;;;;;;;1.45;1.35;;;26.30;75.10;;;;;;5052104;28;20204;-63
2023/06/13 09:00:22;;;;;;;1.10;1.02;;;26.50;73.70;;;;;;5051897;28;20310;-63
2023/06/13 09:02:50;;;;;;;0.98;0.98;;;26.60;73.60;;;;;;5052137;28;20243;-63
2023/06/13 09:05:18;;;;;;;1.10;1.10;;;26.70;72.50;;;;;;5051949;28;20701;-63
2023/06/13 09:07:46;;;;;;;1.30;1.20;;;26.70;71.30;;;;;;5051995;28;20211;-63
2023/06/13 09:10:15;;;;;;;1.05;1.05;;;26.80;72.40;;;;;;5051635;28;20238;-64
2023/06/13 09:12:43;;;;;;;1.33;1.23;;;26.90;72.50;;;;;;5051728;28;20210;-64
2023/06/13 09:15:11;;;;;;;1.20;1.20;;;26.90;70.00;;;;;;5051944;28;20696;-63
2023/06/13 09:17:38;;;;;;;1.13;1.00;;;26.90;70.00;;;;;;5052030;28;20664;-61
2023/06/13 09:20:07;;;;;;;1.00;1.00;;;26.90;70.40;;;;;;5052735;28;20204;-61
2023/06/13 09:22:35;;;;;;;1.25;1.20;;;27.00;69.70;;;;;;5052403;28;20666;-61
2023/06/13 09:25:04;;;;;;;1.05;1.05;;;27.00;69.00;;;;;;5052004;28;20219;-61
2023/06/13 09:27:32;;;;;;;0.98;0.98;;;27.00;67.50;;;;;;5051955;28;20634;-62
2023/06/13 09:30:00;;;;;;;1.85;1.15;;;27.10;67.70;;;;;;5051832;28;20206;-62
2023/06/13 09:32:27;;;;;;;1.15;1.05;;;27.10;68.00;;;;;;5051685;28;20261;-62
2023/06/13 09:34:55;;;;;;;1.00;1.00;;;27.10;66.90;;;;;;5054036;28;20248;-62
2023/06/13 09:37:26;;;;;;;1.35;1.00;;;27.20;67.70;;;;;;5052129;28;20204;-63
2023/06/13 09:39:54;;;;;;;1.10;1.10;;;27.40;68.70;;;;;;5053252;28;20207;-62
2023/06/13 09:42:22;;;;;;;1.33;1.23;;;27.60;68.40;;;;;;5053462;28;20210;-63
2023/06/13 09:44:51;;;;;;;1.20;1.20;;;27.70;67.10;;;;;;5054047;28;20281;-62
2023/06/13 09:47:22;;;;;;;1.83;1.33;;;27.60;64.70;;;;;;5056408;28;20212;-63
2023/06/13 09:49:53;;;;;;;1.20;1.08;;;27.80;62.80;;;;;;5055375;28;20212;-63
2023/06/13 09:52:24;;;;;;;2.03;1.30;;;27.80;65.00;;;;;;5055088;28;20204;-63
2023/06/13 09:54:51;;;;;;;1.67;1.35;;;27.80;64.60;;;;;;5055546;28;20235;-63
2023/06/13 09:57:18;;;;;;;1.30;1.20;;;27.70;62.40;;;;;;5055754;28;20203;-62
2023/06/13 09:59:47;;;;;;;2.58;1.13;;;27.80;65.10;;;;;;5055141;28;20234;-63
2023/06/13 10:02:16;;;;;;;1.08;1.08;;;27.80;64.30;;;;;;5055441;28;20294;-63
2023/06/13 10:04:43;;;;;;;2.60;1.30;;;27.80;64.00;;;;;;5054373;28;20706;-63
2023/06/13 10:07:12;;;;;;;1.30;1.20;;;27.90;62.50;;;;;;5054912;28;20208;-63
2023/06/13 10:09:39;;;;;;;1.00;1.00;;;28.00;63.70;;;;;;5055565;28;20200;-62
2023/06/13 10:12:12;;;;;;;1.27;1.27;;;28.10;63.80;;;;;;5055414;28;20216;-63
2023/06/13 10:14:43;;;;;;;1.45;1.35;;;28.20;64.10;;;;;;5055215;28;20846;-63
2023/06/13 10:17:18;;;;;;;3.03;1.50;;;28.10;61.80;;;;;;5057585;28;20242;-63
2023/06/13 10:19:52;;;;;;;1.40;1.30;;;28.10;62.70;;;;;;5062041;28;20210;-62
2023/06/13 10:22:20;;;;;;;1.05;1.05;;;28.20;62.50;;;;;;5056603;28;20203;-63
2023/06/13 10:24:51;;;;;;;1.25;1.15;;;28.10;62.20;;;;;;5055575;28;20249;-63
2023/06/13 10:27:20;;;;;;;1.10;1.10;;;28.20;62.30;;;;;;5055369;28;20208;-63
2023/06/13 10:30:15;;;;;;;1.00;1.00;;;28.30;59.80;;;;;;5054754;28;20295;-62
2023/06/13 10:33:10;;;;;;;1.13;1.13;;;28.20;58.10;;;;;;5054938;28;20208;-62
2023/06/13 10:36:00;;;;;;;1.60;1.20;;;28.20;58.50;;;;;;5055035;28;20200;-62
2023/06/13 10:38:54;;;;;;;5.25;2.00;;;28.20;59.90;;;;;;5054878;28;20223;-62
2023/06/13 10:41:57;;;;;;;1.63;1.52;;;28.20;59.50;;;;;;5054455;28;20235;-63
2023/06/13 10:44:32;;;;;;;1.35;1.25;;;28.30;58.60;;;;;;5025107;28;20231;-63
2023/06/13 10:47:00;;;;;;;1.50;1.40;;;28.30;58.30;;;;;;5053847;28;20234;-64
2023/06/13 10:49:37;;;;;;;2.05;1.30;;;28.40;59.80;;;;;;5054243;28;20739;-63
2023/06/13 10:52:11;;;;;;;1.30;1.20;;;28.50;60.70;;;;;;5054289;28;20281;-62
2023/06/13 10:54:39;;;;;;;1.73;1.15;;;28.40;58.90;;;;;;5054350;28;20235;-69
2023/06/13 10:57:07;;;;;;;1.42;1.33;;;28.40;59.10;;;;;;5052829;28;20206;-63
2023/06/13 10:59:38;;;;;;;2.28;1.95;;;28.50;58.70;;;;;;5054230;28;20303;-63
2023/06/13 11:02:05;;;;;;;1.38;1.30;;;28.60;58.40;;;;;;5054222;28;20207;-62
2023/06/13 11:04:32;;;;;;;2.63;1.38;;;28.50;58.90;;;;;;5054130;28;20306;-63
2023/06/13 11:07:33;;;;;;;1.25;1.13;;;28.50;59.10;;;;;;5054186;28;20235;-62
2023/06/13 11:10:05;;;;;;;1.92;1.65;;;28.70;59.90;;;;;;5053956;28;20208;-64
2023/06/13 11:12:32;;;;;;;1.75;1.65;;;28.70;59.10;;;;;;5054216;28;20210;-64
2023/06/13 11:15:08;;;;;;;1.40;1.30;;;28.60;59.00;;;;;;5067190;22;20231;-64
2023/06/13 11:17:34;;;;;;;1.95;1.70;;;28.60;59.00;;;;;;5053944;28;20295;-62
2023/06/13 11:20:01;;;;;;;1.30;1.20;;;28.60;58.60;;;;;;5053249;28;20208;-63
2023/06/13 11:22:31;;;;;;;1.65;1.55;;;28.80;58.70;;;;;;5053932;28;20212;-64
2023/06/13 11:24:59;;;;;;;1.10;1.10;;;28.70;57.40;;;;;;5052602;28;20587;-62
2023/06/13 11:27:26;;;;;;;1.27;1.17;;;28.70;57.70;;;;;;5053965;28;20228;-63
2023/06/13 11:29:53;;;;;;;3.65;2.65;;;28.80;58.60;;;;;;5053554;28;20210;-63
2023/06/13 11:32:22;;;;;;;1.60;1.50;;;28.80;57.50;;;;;;5054766;28;20211;-63
2023/06/13 11:34:50;;;;;;;1.15;1.15;;;28.70;55.00;;;;;;5052779;28;20238;-62
2023/06/13 11:37:25;;;;;;;1.60;1.50;;;28.70;53.50;;;;;;5054525;28;20558;-62
2023/06/13 11:39:56;;;;;;;1.10;1.10;;;28.60;54.70;;;;;;5057494;28;20188;-64
2023/06/13 11:42:23;;;;;;;1.45;1.40;;;28.70;55.80;;;;;;5054637;28;20696;-63
2023/06/13 11:44:51;;;;;;;1.77;1.33;;;28.80;55.70;;;;;;5054503;28;20247;-64
2023/06/13 11:47:18;;;;;;;1.30;1.20;;;28.80;55.50;;;;;;5058990;28;20238;-64
2023/06/13 11:49:55;;;;;;;1.20;1.20;;;28.70;54.70;;;;;;5053606;28;20236;-62
2023/06/13 11:52:22;;;;;;;1.30;1.20;;;28.80;56.20;;;;;;5057385;28;20219;-63
2023/06/13 11:54:50;;;;;;;1.45;1.35;;;28.70;54.40;;;;;;5054129;28;20729;-63
2023/06/13 11:57:18;;;;;;;3.28;2.00;;;28.70;54.10;;;;;;5053956;28;20255;-64
2023/06/13 11:59:45;;;;;;;2.88;1.83;;;28.60;54.80;;;;;;5053402;28;20214;-63
2023/06/13 12:02:14;;;;;;;2.08;1.50;;;28.70;54.50;;;;;;5055572;28;20590;-62
2023/06/13 12:04:43;;;;;;;1.63;1.52;;;28.80;53.20;;;;;;5055513;28;20239;-65
2023/06/13 12:07:13;;;;;;;1.50;1.40;;;28.80;51.10;;;;;;5055814;28;20220;-63
2023/06/13 12:09:42;;;;;;;2.15;1.60;;;28.70;50.90;;;;;;5054537;28;20208;-64
2023/06/13 12:12:11;;;;;;;1.40;1.30;;;28.80;51.50;;;;;;5054142;28;20211;-61
2023/06/13 12:14:39;;;;;;;2.30;1.48;;;28.80;50.50;;;;;;5053731;28;20236;-64
2023/06/13 12:17:07;;;;;;;5.45;1.65;;;28.80;50.30;;;;;;5055636;28;20202;-62
2023/06/13 12:19:35;;;;;;;1.23;1.15;;;28.80;50.70;;;;;;5058345;28;20208;-63
2023/06/13 12:22:02;;;;;;;2.30;1.40;;;28.80;50.90;;;;;;5058326;28;20255;-63
2023/06/13 12:24:29;;;;;;;1.10;1.10;;;28.90;51.60;;;;;;5056851;28;20238;-62
2023/06/13 12:26:56;;;;;;;1.30;1.30;;;29.00;51.30;;;;;;5052815;28;20251;-64
2023/06/13 12:29:27;;;;;;;1.65;1.55;;;29.10;50.40;;;;;;5053055;28;20302;-63
2023/06/13 12:32:02;;;;;;;3.45;1.98;;;29.00;49.80;;;;;;5052834;28;20299;-64
2023/06/13 12:34:32;;;;;;;1.60;1.50;;;28.90;49.50;;;;;;5052538;28;20323;-62
2023/06/13 12:37:02;;;;;;;1.17;1.17;;;29.10;51.40;;;;;;5051855;28;20235;-62
2023/06/13 12:39:30;;;;;;;1.23;1.23;;;29.10;50.00;;;;;;5052269;28;20216;-63
2023/06/13 12:42:00;;;;;;;1.20;1.20;;;29.00;50.50;;;;;;5052634;28;20204;-62
2023/06/13 12:44:30;;;;;;;1.00;1.00;;;29.20;51.80;;;;;;5052816;28;20224;-63
2023/06/13 12:47:02;;;;;;;1.10;1.10;;;29.30;51.50;;;;;;5052440;28;20596;-62
2023/06/13 12:49:35;;;;;;;4.20;1.70;;;29.30;50.90;;;;;;5051619;28;20686;-64
2023/06/13 12:52:02;;;;;;;1.30;1.20;;;29.40;52.00;;;;;;5052428;28;20623;-62
2023/06/13 12:54:34;;;;;;;1.45;1.35;;;29.40;52.20;;;;;;5052489;28;20238;-62